Terminal Aerodrome Forecast
Issued by NWS

Home | Current Version | Previous Version | Text Only | Print | Product List | Glossary On
Versions: 1 2 3 4 5 6 7 8 9 10 11 12 13 14 15 16 17 18 19 20
000
FTUS45 KBOU 280704 AAA
TAFBJC
TAF AMD
KBJC 280704Z 2807/2906 34013KT P6SM BKN030 OVC060
     FM281100 30008KT P6SM SCT015 OVC025
     FM281500 01009KT P6SM SCT025 BKN040
     FM281800 05012KT P6SM VCTS SCT025CB OVC040 PROB30 2820/2824
      VRB20G30KT 5SM TSRA BKN025CB
     FM290000 32010KT P6SM SCT050 SCT080 BKN240=

USA.gov is the U.S. government's official web portal to all federal, state and local government web resources and services.